Cheticamp, Canada
Current Conditions -  °F | °C
As of 6:31 PM on Saturday 25 Oct 2014 (Local Time) from CYQY Reporting Station
Drizzle Drizzle  
Wind Chill: 50°   Ceiling: 300
Heat Index: 50°   Visibility: 1.2mi
Dew Point: 50°   Wind: 8mph
Humidity: 100%   Direction: 60°ENE
Pressure: 29.43"   Gusts: NA
Location:  46.63°N, 61.01°W
Report Text: CYQY 252131Z 06007KT 1 1/4SM -DZ BR BKN003 OVC008 10/10 A2943 RMK ST6ST2 SLP967
Loading
Personal Weather Stations






























Interactive Weather Map
Tropical Storm Tracking
New forecast layout! Learn more

10-Day Weather Forecast

Advertisements
Track Severe Weather on mobile